Time;durP1;ratioP1;P1;durP2;ratioP2;P2;SDS_P1;SDS_P2;PMS_P1;PMS_P2;Temp;Humidity;BMP_temperature;BMP_pressure;BME280_temperature;BME280_humidity;BME280_pressure;Samples;Min_cycle;Max_cycle;Signal;HPM_P1;HPM_P2
2022/07/15 00:02:24;;;;;;;9.53;1.90;;;13.00;98.30;;;;;;4998790;28;20602;-75
2022/07/15 00:04:50;;;;;;;8.93;1.90;;;13.00;98.30;;;;;;5003937;28;20237;-76
2022/07/15 00:07:17;;;;;;;6.93;1.60;;;12.90;98.50;;;;;;4992163;28;20883;-76
2022/07/15 00:12:28;;;;;;;6.20;1.57;;;12.80;98.70;;;;;;5000611;28;20228;-76
2022/07/15 00:14:55;;;;;;;7.67;1.70;;;12.80;98.70;;;;;;5003228;28;20227;-75
2022/07/15 00:17:23;;;;;;;5.67;1.20;;;12.80;99.20;;;;;;5003326;28;20223;-76
2022/07/15 00:19:49;;;;;;;6.30;1.50;;;12.80;99.10;;;;;;5002923;28;20221;-76
2022/07/15 00:22:16;;;;;;;7.80;1.80;;;12.80;99.00;;;;;;5008244;28;20397;-75
2022/07/15 00:24:43;;;;;;;8.80;1.60;;;12.80;99.10;;;;;;5003023;28;20781;-76
2022/07/15 00:27:09;;;;;;;10.77;2.17;;;12.80;99.20;;;;;;5001250;28;20219;-76
2022/07/15 00:29:36;;;;;;;8.27;1.60;;;12.90;99.30;;;;;;4983315;28;20609;-76
2022/07/15 00:32:03;;;;;;;5.47;1.73;;;12.90;99.30;;;;;;4985233;28;20229;-76
2022/07/15 00:34:31;;;;;;;6.90;1.70;;;12.90;99.30;;;;;;5001989;28;20444;-76
2022/07/15 00:36:58;;;;;;;5.10;1.30;;;13.00;99.40;;;;;;5000660;28;20215;-76
2022/07/15 00:39:25;;;;;;;7.70;1.87;;;13.00;99.50;;;;;;4999237;28;20235;-76
2022/07/15 00:41:52;;;;;;;6.77;1.97;;;13.00;99.40;;;;;;5003336;28;20230;-76
2022/07/15 00:44:19;;;;;;;4.03;1.30;;;13.10;99.40;;;;;;4989195;28;20242;-76
2022/07/15 00:46:46;;;;;;;6.73;1.53;;;13.10;99.50;;;;;;4999295;28;20270;-76
2022/07/15 00:49:12;;;;;;;3.90;1.43;;;13.10;99.50;;;;;;4984208;28;20284;-76
2022/07/15 00:51:42;;;;;;;9.17;2.00;;;13.10;99.50;;;;;;4984712;28;20234;-76
2022/07/15 00:54:10;;;;;;;7.33;1.70;;;13.10;99.40;;;;;;5002048;28;20250;-76
2022/07/15 00:56:39;;;;;;;5.43;1.57;;;13.10;99.40;;;;;;5003390;28;20582;-77
2022/07/15 00:59:07;;;;;;;7.03;1.60;;;13.10;99.30;;;;;;4985042;28;20736;-77
2022/07/15 01:01:34;;;;;;;6.00;1.33;;;13.10;99.30;;;;;;4985867;28;20241;-76
2022/07/15 01:04:03;;;;;;;5.03;1.23;;;13.10;99.30;;;;;;4985409;28;20289;-77
2022/07/15 01:06:30;;;;;;;4.83;1.37;;;13.10;99.40;;;;;;5003474;28;20230;-77
2022/07/15 01:08:58;;;;;;;6.37;1.40;;;13.00;99.30;;;;;;5003130;28;20634;-76
2022/07/15 01:11:25;;;;;;;6.37;1.33;;;13.00;99.40;;;;;;5002738;28;20771;-76
2022/07/15 01:13:52;;;;;;;4.13;1.17;;;13.00;99.40;;;;;;4986321;28;20851;-77
2022/07/15 01:16:19;;;;;;;6.07;1.43;;;12.90;99.50;;;;;;4985064;28;20782;-76
2022/07/15 01:18:46;;;;;;;6.00;1.30;;;12.90;99.70;;;;;;4985659;28;20231;-76
2022/07/15 01:21:14;;;;;;;6.27;1.60;;;12.90;99.90;;;;;;5017068;28;20233;-75
2022/07/15 01:23:42;;;;;;;5.70;1.50;;;12.80;99.90;;;;;;4987712;28;20235;-75
2022/07/15 01:26:16;;;;;;;4.43;1.47;;;12.90;99.90;;;;;;4997031;28;20636;-76
2022/07/15 01:28:44;;;;;;;8.40;1.77;;;12.90;99.90;;;;;;4984174;28;20235;-76
2022/07/15 01:31:12;;;;;;;6.80;1.53;;;12.90;99.90;;;;;;5001539;28;20746;-76
2022/07/15 01:33:38;;;;;;;4.30;1.60;;;12.90;99.90;;;;;;4986457;28;20260;-76
2022/07/15 01:36:07;;;;;;;6.00;1.60;;;12.90;99.90;;;;;;5003254;28;20800;-76
2022/07/15 01:38:37;;;;;;;4.80;1.20;;;12.90;99.90;;;;;;4992474;28;20226;-77
2022/07/15 01:41:04;;;;;;;7.10;1.20;;;12.90;99.90;;;;;;4993312;28;20223;-77
2022/07/15 01:43:31;;;;;;;6.47;1.30;;;13.00;99.90;;;;;;5003668;28;20237;-77
2022/07/15 01:45:58;;;;;;;6.33;1.47;;;13.00;99.90;;;;;;4986235;28;20214;-77
2022/07/15 01:51:36;;;;;;;4.70;0.97;;;13.10;99.90;;;;;;4996382;28;20771;-77
2022/07/15 01:54:05;;;;;;;3.80;1.03;;;13.00;99.90;;;;;;5001307;28;20711;-76
2022/07/15 01:56:32;;;;;;;5.27;1.20;;;13.00;99.90;;;;;;4978238;28;20229;-76
2022/07/15 01:58:59;;;;;;;4.40;1.40;;;13.00;99.80;;;;;;5003023;28;20279;-76
2022/07/15 02:01:25;;;;;;;7.20;1.53;;;13.00;99.80;;;;;;4985488;28;20227;-76
2022/07/15 02:03:52;;;;;;;4.90;1.30;;;13.00;99.70;;;;;;4983816;28;20222;-76
2022/07/15 02:06:19;;;;;;;5.30;1.30;;;13.00;99.80;;;;;;5001217;28;20221;-75
2022/07/15 02:08:45;;;;;;;8.07;1.20;;;12.90;99.80;;;;;;4990394;28;20329;-75
2022/07/15 02:11:16;;;;;;;4.40;1.20;;;12.90;99.90;;;;;;4990930;28;20611;-75
2022/07/15 02:13:46;;;;;;;4.20;1.17;;;12.90;99.90;;;;;;4982074;28;20223;-75
2022/07/15 02:16:14;;;;;;;3.40;1.00;;;12.90;99.90;;;;;;4983428;28;20229;-75
2022/07/15 02:18:41;;;;;;;4.33;1.47;;;12.90;99.90;;;;;;4987233;28;20303;-75
2022/07/15 02:21:08;;;;;;;6.07;1.43;;;12.90;99.90;;;;;;4986082;28;20307;-76
2022/07/15 02:23:35;;;;;;;4.33;1.13;;;12.90;99.90;;;;;;4987117;28;20494;-75
2022/07/15 02:26:02;;;;;;;5.27;1.10;;;12.90;99.90;;;;;;4981045;28;20234;-75
2022/07/15 02:28:31;;;;;;;3.13;1.00;;;12.90;99.90;;;;;;4981220;28;20333;-75
2022/07/15 02:30:58;;;;;;;2.93;0.87;;;12.90;99.90;;;;;;4979913;28;20219;-75
2022/07/15 02:33:25;;;;;;;4.97;1.10;;;12.90;99.90;;;;;;4981629;28;20323;-75
2022/07/15 02:35:51;;;;;;;4.07;0.90;;;12.90;99.90;;;;;;5016159;28;20297;-76
2022/07/15 02:38:19;;;;;;;2.87;0.97;;;12.90;99.80;;;;;;4985313;28;20225;-75
2022/07/15 02:40:48;;;;;;;1.80;0.70;;;12.90;99.90;;;;;;4984018;28;20306;-76
2022/07/15 02:43:16;;;;;;;3.23;0.80;;;12.90;99.90;;;;;;4986914;28;20229;-76
2022/07/15 02:45:46;;;;;;;5.10;1.20;;;12.90;99.90;;;;;;4987901;28;20227;-77
2022/07/15 02:48:16;;;;;;;5.07;0.90;;;12.80;99.90;;;;;;5006673;28;20317;-76
2022/07/15 02:50:46;;;;;;;6.07;0.97;;;12.80;99.90;;;;;;4987585;28;20220;-76
2022/07/15 02:53:15;;;;;;;4.63;1.30;;;12.80;99.90;;;;;;4988730;28;20249;-77
2022/07/15 02:55:43;;;;;;;4.87;0.90;;;12.90;99.90;;;;;;4995720;28;20239;-76
2022/07/15 02:58:09;;;;;;;2.03;0.80;;;12.80;99.90;;;;;;5006464;28;20279;-76
2022/07/15 03:00:38;;;;;;;2.83;0.87;;;12.80;99.90;;;;;;5004322;28;20221;-76
2022/07/15 03:03:06;;;;;;;2.70;0.70;;;12.80;99.90;;;;;;4986039;28;20310;-77
2022/07/15 03:05:36;;;;;;;6.03;1.10;;;12.80;99.90;;;;;;4988784;28;20317;-76
2022/07/15 03:08:03;;;;;;;5.43;1.00;;;12.80;99.90;;;;;;4989262;28;20216;-80
2022/07/15 03:10:30;;;;;;;4.23;1.20;;;12.80;99.90;;;;;;5024665;28;20254;-81
2022/07/15 03:12:56;;;;;;;3.03;0.80;;;12.80;99.90;;;;;;4994260;28;20696;-81
2022/07/15 03:15:23;;;;;;;5.27;1.67;;;12.70;99.90;;;;;;5010515;28;20365;-81
2022/07/15 03:17:50;;;;;;;4.43;1.00;;;12.80;99.90;;;;;;4998958;28;20229;-81
2022/07/15 03:20:18;;;;;;;3.97;0.80;;;12.80;99.90;;;;;;4982910;28;20289;-80
2022/07/15 03:22:51;;;;;;;4.93;0.90;;;12.70;99.90;;;;;;4995216;28;20226;-80
2022/07/15 03:25:18;;;;;;;3.87;0.90;;;12.80;99.90;;;;;;5007440;28;20333;-80
2022/07/15 03:27:45;;;;;;;4.50;1.10;;;12.80;99.90;;;;;;5008719;28;20225;-80
2022/07/15 03:30:14;;;;;;;4.10;1.17;;;12.80;99.90;;;;;;4984368;28;20219;-79
2022/07/15 03:32:42;;;;;;;3.47;1.10;;;12.80;99.90;;;;;;4988457;28;20235;-80
2022/07/15 03:35:10;;;;;;;3.47;0.90;;;12.80;99.90;;;;;;4989987;28;20230;-80
2022/07/15 03:37:40;;;;;;;6.27;1.00;;;12.90;99.90;;;;;;4987485;28;20822;-80
2022/07/15 03:40:07;;;;;;;5.00;1.20;;;12.90;99.90;;;;;;4990465;28;20252;-81
2022/07/15 03:42:37;;;;;;;4.73;0.97;;;12.90;99.90;;;;;;5009042;28;20232;-80
2022/07/15 03:45:04;;;;;;;3.63;1.10;;;13.00;99.90;;;;;;4989502;28;20214;-81
2022/07/15 03:47:31;;;;;;;3.43;0.90;;;13.00;99.90;;;;;;5009065;28;20232;-80
2022/07/15 03:50:00;;;;;;;3.33;0.80;;;13.00;99.90;;;;;;4998882;28;20218;-81
2022/07/15 03:52:27;;;;;;;3.30;1.03;;;13.00;99.90;;;;;;4993691;28;20314;-80
2022/07/15 03:54:55;;;;;;;5.60;1.30;;;13.00;99.90;;;;;;4985638;28;20304;-80
2022/07/15 03:57:24;;;;;;;4.23;0.87;;;13.00;99.90;;;;;;4991718;28;20322;-83
2022/07/15 03:59:51;;;;;;;5.80;1.00;;;13.00;99.90;;;;;;4991048;28;20219;-80
2022/07/15 04:02:18;;;;;;;3.73;1.10;;;13.10;99.90;;;;;;5000016;28;21105;-81
2022/07/15 04:04:45;;;;;;;3.07;1.37;;;13.10;99.90;;;;;;4988288;28;20228;-80
2022/07/15 04:07:12;;;;;;;4.43;0.90;;;13.10;99.90;;;;;;5018162;28;20231;-80
2022/07/15 04:09:38;;;;;;;3.47;1.03;;;13.10;99.90;;;;;;4989183;28;20394;-79
2022/07/15 04:12:07;;;;;;;3.97;1.50;;;13.10;99.90;;;;;;4995208;28;20220;-81
2022/07/15 04:14:39;;;;;;;4.10;1.27;;;13.10;99.90;;;;;;4986199;28;20250;-80
2022/07/15 04:17:06;;;;;;;4.67;0.90;;;13.20;99.90;;;;;;4991296;28;20230;-81
2022/07/15 04:19:35;;;;;;;3.80;0.93;;;13.20;99.90;;;;;;5009027;28;20218;-81
2022/07/15 04:22:04;;;;;;;6.80;1.00;;;13.20;99.90;;;;;;4987782;28;20392;-80
2022/07/15 04:24:38;;;;;;;4.83;1.00;;;13.30;99.90;;;;;;5003952;28;20304;-81
2022/07/15 04:27:08;;;;;;;5.50;1.20;;;13.30;99.90;;;;;;4990943;28;20215;-80
2022/07/15 04:29:35;;;;;;;3.63;1.20;;;13.30;99.90;;;;;;5005751;28;20820;-82
2022/07/15 04:32:04;;;;;;;5.50;1.00;;;13.30;99.90;;;;;;4994148;28;20223;-83
2022/07/15 04:34:35;;;;;;;4.60;0.90;;;13.40;99.80;;;;;;4983707;28;20357;-81
2022/07/15 04:37:02;;;;;;;3.27;1.17;;;13.40;99.80;;;;;;4990411;28;20484;-81
2022/07/15 04:39:30;;;;;;;4.03;1.13;;;13.40;99.80;;;;;;5017895;28;20227;-81
2022/07/15 04:41:58;;;;;;;6.33;1.13;;;13.50;99.80;;;;;;4988100;28;20609;-83
2022/07/15 04:44:29;;;;;;;3.10;1.00;;;13.50;99.70;;;;;;4985969;28;20367;-81
2022/07/15 04:46:57;;;;;;;4.90;1.13;;;13.60;99.50;;;;;;4988962;28;20223;-81
2022/07/15 04:52:13;;;;;;;3.80;0.90;;;13.70;99.30;;;;;;5019951;28;20307;-81
2022/07/15 04:54:43;;;;;;;4.60;1.27;;;13.80;99.10;;;;;;4989132;28;20290;-81
2022/07/15 04:57:11;;;;;;;3.13;0.90;;;13.90;99.00;;;;;;4992436;28;20747;-81
2022/07/15 04:59:39;;;;;;;3.83;1.00;;;13.90;98.90;;;;;;4992227;28;20220;-81
2022/07/15 05:02:10;;;;;;;6.07;1.20;;;14.00;98.70;;;;;;4993577;28;20233;-81
2022/07/15 05:04:41;;;;;;;4.20;1.23;;;14.10;98.70;;;;;;4990104;28;20233;-82
2022/07/15 05:07:10;;;;;;;6.07;1.10;;;14.10;98.50;;;;;;5011330;28;20316;-82
2022/07/15 05:09:38;;;;;;;4.50;1.20;;;14.20;98.50;;;;;;4993689;28;20276;-81
2022/07/15 05:12:06;;;;;;;4.77;1.20;;;14.30;98.50;;;;;;4995619;28;20924;-81
2022/07/15 05:14:42;;;;;;;3.10;1.10;;;14.30;98.20;;;;;;4989134;28;20228;-82
2022/07/15 05:17:09;;;;;;;5.53;1.90;;;14.40;98.10;;;;;;4996440;28;20228;-80
2022/07/15 05:19:36;;;;;;;3.13;0.83;;;14.50;98.10;;;;;;5022592;28;20224;-82
2022/07/15 05:22:04;;;;;;;3.77;1.17;;;14.50;98.10;;;;;;4986999;28;20229;-80
2022/07/15 05:24:32;;;;;;;3.07;0.73;;;14.60;98.10;;;;;;4986873;28;20891;-83
2022/07/15 05:27:03;;;;;;;3.57;1.00;;;14.60;98.00;;;;;;4990195;28;20641;-82
2022/07/15 05:29:32;;;;;;;4.43;0.97;;;14.70;98.10;;;;;;4988246;28;20620;-80
2022/07/15 05:32:00;;;;;;;4.13;1.10;;;14.70;98.00;;;;;;5000158;28;20298;-80
2022/07/15 05:34:28;;;;;;;5.57;1.40;;;14.80;98.10;;;;;;4986409;28;20223;-81
2022/07/15 05:36:57;;;;;;;6.23;1.50;;;14.80;98.10;;;;;;4996155;28;20279;-81
2022/07/15 05:39:24;;;;;;;6.87;1.73;;;14.80;98.20;;;;;;4990412;28;20234;-81
2022/07/15 05:41:53;;;;;;;5.30;1.10;;;14.80;98.10;;;;;;4992278;28;20944;-81
2022/07/15 05:44:21;;;;;;;5.80;1.30;;;14.80;98.10;;;;;;4989482;28;20292;-81
2022/07/15 05:46:50;;;;;;;5.37;1.30;;;14.80;98.30;;;;;;4996101;28;20231;-82
2022/07/15 05:49:18;;;;;;;3.70;1.47;;;14.80;98.30;;;;;;4999602;28;20220;-81
2022/07/15 05:51:45;;;;;;;5.13;1.33;;;14.80;98.40;;;;;;4996279;28;20801;-81
2022/07/15 05:54:14;;;;;;;4.07;0.97;;;14.80;98.50;;;;;;5006082;28;20243;-81
2022/07/15 05:56:42;;;;;;;3.13;1.40;;;14.80;98.80;;;;;;5002237;28;20216;-81
2022/07/15 05:59:10;;;;;;;7.60;1.47;;;14.80;99.00;;;;;;5002739;28;20235;-81
2022/07/15 06:01:37;;;;;;;4.67;1.20;;;14.70;99.20;;;;;;4996051;28;20373;-80
2022/07/15 06:04:04;;;;;;;7.93;1.40;;;14.60;99.50;;;;;;4999850;28;20270;-80
2022/07/15 06:06:32;;;;;;;7.50;1.40;;;14.50;99.90;;;;;;5003144;28;20223;-80
2022/07/15 06:09:00;;;;;;;6.83;1.70;;;14.40;99.90;;;;;;5015158;28;20240;-80
2022/07/15 06:11:27;;;;;;;2.83;1.40;;;14.40;99.90;;;;;;4992953;28;20747;-80
2022/07/15 06:13:55;;;;;;;4.47;1.00;;;14.30;99.90;;;;;;4983597;28;20230;-80
2022/07/15 06:16:22;;;;;;;4.30;1.30;;;14.40;99.90;;;;;;4994244;28;20248;-80
2022/07/15 06:18:50;;;;;;;4.63;1.13;;;14.50;99.90;;;;;;4978809;28;20335;-80
2022/07/15 06:21:17;;;;;;;5.50;1.43;;;14.60;99.90;;;;;;4987214;28;20244;-81
2022/07/15 06:23:46;;;;;;;4.93;1.30;;;14.70;99.90;;;;;;4981629;28;20554;-81
2022/07/15 06:26:13;;;;;;;5.37;0.90;;;14.80;99.90;;;;;;4990526;28;20231;-81
2022/07/15 06:28:42;;;;;;;3.67;1.20;;;14.90;99.90;;;;;;5004811;28;20231;-81
2022/07/15 06:31:09;;;;;;;4.37;1.00;;;15.00;99.90;;;;;;5004857;28;20231;-81
2022/07/15 06:33:35;;;;;;;2.50;0.90;;;15.20;99.90;;;;;;4982744;28;20792;-81
2022/07/15 06:36:02;;;;;;;6.17;1.40;;;15.20;99.90;;;;;;5000798;28;20823;-81
2022/07/15 06:38:29;;;;;;;4.20;0.90;;;15.30;99.90;;;;;;5005212;28;20488;-81
2022/07/15 06:40:57;;;;;;;3.77;1.17;;;15.30;99.60;;;;;;4984640;28;20736;-81
2022/07/15 06:43:25;;;;;;;7.07;1.33;;;15.40;99.90;;;;;;5003190;28;20787;-81
2022/07/15 06:46:09;;;;;;;2.63;0.93;;;15.40;99.40;;;;;;4981816;28;20239;-81
2022/07/15 06:48:38;;;;;;;2.27;0.77;;;15.40;99.30;;;;;;4990128;28;20557;-81
2022/07/15 06:51:05;;;;;;;3.07;0.83;;;15.40;99.00;;;;;;4997003;28;20227;-81
2022/07/15 06:53:32;;;;;;;2.27;0.90;;;15.40;99.00;;;;;;5007605;28;20237;-81
2022/07/15 06:56:00;;;;;;;5.67;1.20;;;15.50;98.80;;;;;;4994934;28;20278;-82
2022/07/15 06:58:28;;;;;;;2.73;0.80;;;15.50;99.00;;;;;;4989829;28;20247;-81
2022/07/15 07:00:56;;;;;;;3.23;0.80;;;15.60;99.00;;;;;;5003746;28;20252;-81
2022/07/15 07:03:23;;;;;;;5.80;1.13;;;15.70;98.70;;;;;;4986129;28;20637;-81
2022/07/15 07:05:50;;;;;;;2.23;0.80;;;15.80;98.50;;;;;;5026077;28;20248;-81
2022/07/15 07:08:17;;;;;;;2.57;0.77;;;15.90;98.00;;;;;;4993173;28;20235;-81
2022/07/15 07:10:43;;;;;;;5.30;0.87;;;16.00;97.90;;;;;;5004285;28;20331;-81
2022/07/15 07:13:12;;;;;;;3.53;0.80;;;16.10;97.50;;;;;;4986622;28;20228;-81
2022/07/15 07:15:39;;;;;;;6.60;1.37;;;16.10;97.20;;;;;;5009768;28;20377;-81
2022/07/15 07:18:06;;;;;;;3.20;0.83;;;16.20;97.60;;;;;;5009326;28;20242;-81
2022/07/15 07:20:32;;;;;;;1.97;0.83;;;16.40;97.10;;;;;;5001959;28;20334;-82
2022/07/15 07:22:59;;;;;;;6.20;0.90;;;16.50;96.80;;;;;;4982389;28;20226;-81
2022/07/15 07:25:26;;;;;;;3.33;1.13;;;16.70;96.60;;;;;;5000998;28;20295;-82
2022/07/15 07:27:52;;;;;;;4.00;0.93;;;16.80;95.90;;;;;;5002508;28;20233;-81
2022/07/15 07:30:21;;;;;;;3.90;1.07;;;16.90;95.30;;;;;;5010585;28;20235;-81
2022/07/15 07:32:47;;;;;;;2.60;0.77;;;16.90;94.60;;;;;;5004118;28;20281;-81
2022/07/15 07:35:14;;;;;;;3.17;0.97;;;16.90;94.00;;;;;;5003610;28;20233;-81
2022/07/15 07:37:41;;;;;;;5.63;0.97;;;16.80;94.00;;;;;;5020217;28;20551;-81
2022/07/15 07:40:09;;;;;;;2.07;0.80;;;16.80;94.00;;;;;;5002790;28;20635;-81
2022/07/15 07:42:40;;;;;;;2.93;1.00;;;16.80;94.00;;;;;;5023350;28;20220;-81
2022/07/15 07:45:07;;;;;;;4.93;1.30;;;17.00;94.00;;;;;;5001970;28;20277;-81
2022/07/15 07:47:37;;;;;;;3.60;0.63;;;17.10;93.60;;;;;;5008775;28;20224;-81
2022/07/15 07:50:04;;;;;;;2.33;0.73;;;17.30;93.60;;;;;;4991447;28;20697;-81
2022/07/15 07:52:31;;;;;;;3.63;0.80;;;17.50;93.00;;;;;;5012474;28;20307;-81
2022/07/15 07:54:57;;;;;;;2.70;0.70;;;17.70;92.50;;;;;;5013412;28;20225;-81
2022/07/15 07:57:24;;;;;;;2.85;0.82;;;18.00;92.20;;;;;;4995438;28;20297;-82
2022/07/15 07:59:51;;;;;;;1.77;0.70;;;18.30;91.90;;;;;;5012298;28;20243;-81
2022/07/15 08:02:18;;;;;;;1.77;0.50;;;18.60;91.60;;;;;;5000957;28;20299;-81
2022/07/15 08:04:46;;;;;;;1.35;0.70;;;18.90;91.10;;;;;;4986308;28;20233;-81
2022/07/15 08:07:13;;;;;;;3.63;0.60;;;19.10;90.80;;;;;;5022944;28;20735;-81
2022/07/15 08:09:40;;;;;;;4.03;0.88;;;19.30;90.40;;;;;;4996774;28;20260;-81
2022/07/15 08:12:07;;;;;;;5.20;0.88;;;19.30;90.30;;;;;;5010702;28;20555;-81
2022/07/15 08:14:34;;;;;;;2.15;0.73;;;19.40;89.70;;;;;;5015728;28;20247;-82
2022/07/15 08:17:01;;;;;;;3.17;0.80;;;19.30;89.40;;;;;;5015684;28;20567;-81
2022/07/15 08:19:28;;;;;;;2.33;0.80;;;19.20;87.90;;;;;;4999778;28;20325;-82
2022/07/15 08:21:56;;;;;;;3.45;0.90;;;19.00;87.60;;;;;;4996279;28;20239;-81
2022/07/15 08:24:23;;;;;;;3.77;0.80;;;18.80;88.20;;;;;;5012927;28;20234;-81
2022/07/15 08:26:49;;;;;;;2.30;0.60;;;18.60;88.20;;;;;;5016674;28;20239;-81
2022/07/15 08:29:16;;;;;;;3.43;0.87;;;18.40;88.60;;;;;;5011588;28;20230;-81
2022/07/15 08:31:43;;;;;;;2.83;0.60;;;18.20;88.40;;;;;;4994994;28;20260;-81
2022/07/15 08:34:09;;;;;;;2.50;0.60;;;18.00;88.60;;;;;;4988890;28;20256;-81
2022/07/15 08:36:36;;;;;;;4.27;0.90;;;17.80;89.10;;;;;;5009148;28;20816;-81
2022/07/15 08:39:05;;;;;;;2.30;0.40;;;17.70;89.70;;;;;;5009585;28;20232;-82
2022/07/15 08:41:35;;;;;;;2.53;0.60;;;17.50;90.00;;;;;;4992606;28;20225;-81
2022/07/15 08:44:02;;;;;;;4.43;0.70;;;17.40;90.30;;;;;;5010412;28;20527;-81
2022/07/15 08:46:29;;;;;;;2.80;0.60;;;17.30;90.60;;;;;;5009118;28;20586;-81
2022/07/15 08:49:05;;;;;;;3.63;0.77;;;17.20;90.70;;;;;;4998150;28;20479;-81
2022/07/15 08:51:37;;;;;;;4.43;0.70;;;17.20;90.90;;;;;;5019641;28;20338;-81
2022/07/15 08:54:05;;;;;;;4.20;0.70;;;17.30;90.80;;;;;;5002078;28;20305;-81
2022/07/15 08:56:33;;;;;;;4.43;1.07;;;17.40;91.10;;;;;;5010194;28;20789;-82
2022/07/15 08:59:01;;;;;;;2.20;0.63;;;17.60;91.20;;;;;;4988066;28;20233;-82
2022/07/15 09:01:28;;;;;;;2.03;0.50;;;17.90;91.00;;;;;;4999557;28;20514;-81
2022/07/15 09:03:55;;;;;;;2.38;0.60;;;18.30;91.10;;;;;;5006168;28;20340;-81
2022/07/15 09:06:36;;;;;;;3.22;0.93;;;18.80;91.20;;;;;;5006516;28;20257;-81
2022/07/15 09:09:29;;;;;;;2.00;0.73;;;19.50;89.80;;;;;;5009595;28;20237;-81
2022/07/15 09:11:57;;;;;;;1.60;0.60;;;20.20;89.40;;;;;;5007657;28;20374;-81
2022/07/15 09:14:27;;;;;;;1.90;0.73;;;20.80;87.20;;;;;;5010183;28;20489;-81
2022/07/15 09:17:20;;;;;;;2.85;0.70;;;21.20;85.60;;;;;;5018174;28;20324;-81
2022/07/15 09:20:01;;;;;;;1.95;0.57;;;21.40;83.80;;;;;;5009727;28;20283;-81
2022/07/15 09:22:30;;;;;;;4.28;0.52;;;21.40;81.70;;;;;;5011832;28;20235;-81
2022/07/15 09:25:11;;;;;;;1.05;0.55;;;21.20;82.50;;;;;;5006471;28;20293;-81
2022/07/15 09:27:40;;;;;;;4.43;0.98;;;20.70;83.00;;;;;;5006791;28;20412;-81
2022/07/15 09:36:12;;;;;;;3.97;0.80;;;19.30;84.30;;;;;;5002941;28;20324;-81
2022/07/15 09:38:49;;;;;;;4.53;0.60;;;18.80;85.80;;;;;;4992981;28;20317;-81
2022/07/15 09:41:30;;;;;;;4.40;0.80;;;18.60;86.00;;;;;;4985397;28;20239;-81
2022/07/15 09:43:59;;;;;;;1.05;0.50;;;18.50;86.40;;;;;;5017652;28;20720;-81
2022/07/15 09:46:28;;;;;;;2.00;0.60;;;18.50;87.30;;;;;;5009454;28;20267;-81
2022/07/15 09:48:56;;;;;;;1.48;0.52;;;18.70;87.40;;;;;;4987345;28;20217;-81
2022/07/15 09:51:24;;;;;;;2.33;0.60;;;19.00;87.90;;;;;;5006743;28;20312;-81
2022/07/15 09:53:51;;;;;;;1.52;0.50;;;19.40;87.20;;;;;;4985826;28;20313;-81
2022/07/15 09:56:25;;;;;;;1.92;0.60;;;19.90;86.30;;;;;;5006594;28;20636;-81
2022/07/15 09:58:54;;;;;;;2.28;0.68;;;20.50;84.30;;;;;;5009768;28;21000;-81
2022/07/15 10:01:21;;;;;;;1.33;0.65;;;21.20;83.20;;;;;;4996981;28;20320;-81
2022/07/15 10:03:50;;;;;;;1.77;0.60;;;21.80;82.20;;;;;;5010894;28;20451;-81
2022/07/15 10:06:17;;;;;;;1.63;0.45;;;22.40;81.20;;;;;;5009529;28;20224;-81
2022/07/15 10:08:49;;;;;;;1.50;0.50;;;23.00;79.50;;;;;;4998620;28;20229;-81
2022/07/15 10:11:16;;;;;;;1.95;0.40;;;23.40;77.40;;;;;;5006190;28;20301;-81
2022/07/15 10:14:12;;;;;;;2.40;0.68;;;23.90;75.00;;;;;;5008536;28;20249;-81
2022/07/15 10:17:26;;;;;;;1.63;0.60;;;24.30;74.40;;;;;;5002967;28;20287;-81
2022/07/15 10:20:20;;;;;;;3.03;0.82;;;24.60;72.30;;;;;;4941716;28;20685;-81
2022/07/15 10:22:58;;;;;;;1.92;0.70;;;24.90;70.80;;;;;;4940574;28;20235;-81
2022/07/15 10:25:40;;;;;;;0.43;0.30;;;25.10;69.60;;;;;;4997447;28;20240;-81
2022/07/15 10:28:13;;;;;;;3.00;0.77;;;25.10;67.30;;;;;;4994945;28;20340;-81
2022/07/15 10:30:42;;;;;;;2.90;0.80;;;24.90;66.40;;;;;;4989166;28;20251;-81
2022/07/15 10:33:16;;;;;;;1.55;0.70;;;24.60;66.40;;;;;;5005279;28;20277;-82
2022/07/15 10:35:48;;;;;;;1.52;0.60;;;24.20;66.60;;;;;;4988398;28;20763;-81
2022/07/15 10:38:23;;;;;;;2.33;0.50;;;23.80;67.20;;;;;;5011098;28;20237;-81
2022/07/15 10:41:08;;;;;;;1.48;0.50;;;23.40;67.00;;;;;;4997524;28;20232;-81
2022/07/15 10:43:46;;;;;;;2.35;0.60;;;23.00;67.50;;;;;;5013303;28;20235;-81
2022/07/15 10:46:26;;;;;;;2.20;0.50;;;22.80;67.30;;;;;;4985934;28;20631;-81
2022/07/15 10:49:09;;;;;;;1.65;0.70;;;22.70;67.60;;;;;;5006578;28;20230;-81
2022/07/15 10:51:45;;;;;;;2.40;0.75;;;22.70;68.10;;;;;;5004077;28;20226;-81
2022/07/15 10:54:27;;;;;;;1.90;0.60;;;22.70;68.20;;;;;;5005034;28;20527;-82
2022/07/15 10:56:54;;;;;;;3.25;0.65;;;22.60;68.40;;;;;;5005546;28;20251;-81
2022/07/15 10:59:23;;;;;;;1.70;0.60;;;22.60;69.50;;;;;;5011432;28;20818;-81
2022/07/15 11:02:12;;;;;;;1.42;0.57;;;22.50;68.50;;;;;;5005986;28;20693;-81
2022/07/15 11:04:39;;;;;;;2.75;0.60;;;22.60;67.00;;;;;;5029058;28;20237;-81
2022/07/15 11:07:30;;;;;;;1.70;0.70;;;22.70;68.10;;;;;;5020404;28;20270;-81
2022/07/15 11:10:13;;;;;;;3.75;0.52;;;22.80;68.20;;;;;;5016060;28;20218;-82
2022/07/15 11:13:02;;;;;;;2.65;0.93;;;23.00;67.70;;;;;;5017001;28;20532;-81
2022/07/15 11:15:29;;;;;;;1.50;0.43;;;23.20;66.40;;;;;;5015546;28;20233;-81
2022/07/15 11:17:58;;;;;;;1.58;0.77;;;23.30;67.10;;;;;;5004086;28;20599;-81
2022/07/15 11:20:30;;;;;;;1.33;0.50;;;23.20;66.40;;;;;;5013636;28;20264;-81
2022/07/15 11:22:59;;;;;;;3.05;0.57;;;23.10;65.80;;;;;;5012641;28;20249;-82
2022/07/15 11:25:28;;;;;;;2.22;0.65;;;23.00;65.80;;;;;;5015766;28;20233;-81
2022/07/15 11:28:01;;;;;;;1.30;0.57;;;22.90;66.40;;;;;;5014513;28;20229;-81
2022/07/15 11:30:29;;;;;;;2.15;0.52;;;22.70;66.20;;;;;;5012756;28;20629;-81
2022/07/15 11:32:58;;;;;;;1.95;0.50;;;22.40;66.40;;;;;;4991280;28;20696;-81
2022/07/15 11:35:27;;;;;;;1.42;0.45;;;22.30;67.40;;;;;;4991513;28;20304;-81
2022/07/15 11:38:00;;;;;;;1.55;0.50;;;22.30;68.70;;;;;;5006625;28;20221;-81
2022/07/15 11:46:00;;;;;;;1.95;0.40;;;22.80;69.70;;;;;;5013126;28;20638;-78
2022/07/15 11:48:28;;;;;;;1.95;0.50;;;23.10;68.40;;;;;;4990970;28;20640;-78
2022/07/15 11:50:57;;;;;;;2.17;0.60;;;23.30;67.20;;;;;;4994014;28;20794;-79
2022/07/15 11:53:25;;;;;;;2.60;0.77;;;23.30;67.10;;;;;;5008219;28;20236;-79
2022/07/15 11:55:54;;;;;;;2.60;0.90;;;23.30;67.10;;;;;;4990756;28;20752;-79
2022/07/15 11:58:29;;;;;;;1.40;0.80;;;23.10;67.30;;;;;;5006889;28;20225;-79
2022/07/15 12:00:55;;;;;;;1.33;0.60;;;22.90;67.40;;;;;;4991033;28;20504;-78
2022/07/15 12:03:22;;;;;;;1.40;0.60;;;22.70;67.50;;;;;;5008188;28;20301;-79
2022/07/15 12:06:06;;;;;;;1.45;0.50;;;22.70;67.40;;;;;;5008553;28;20233;-80
2022/07/15 12:08:38;;;;;;;1.58;0.50;;;22.50;67.80;;;;;;5012394;28;20236;-79
2022/07/15 12:11:10;;;;;;;0.98;0.43;;;22.40;67.80;;;;;;5010838;28;20239;-79
2022/07/15 12:13:43;;;;;;;1.40;0.60;;;22.40;67.80;;;;;;5006053;28;20301;-80
2022/07/15 12:16:10;;;;;;;1.50;0.60;;;22.40;67.40;;;;;;4986793;28;20536;-79
2022/07/15 12:18:37;;;;;;;2.38;0.52;;;22.30;67.30;;;;;;5006747;28;20239;-79
2022/07/15 12:21:05;;;;;;;2.03;0.70;;;22.20;66.90;;;;;;5023825;28;20217;-79
2022/07/15 12:23:32;;;;;;;2.75;0.40;;;22.00;66.80;;;;;;5004433;28;20338;-79
2022/07/15 12:26:04;;;;;;;3.35;0.88;;;21.90;67.40;;;;;;5004901;28;20305;-80
2022/07/15 12:28:31;;;;;;;2.63;0.60;;;21.80;68.50;;;;;;5009492;28;20814;-80
2022/07/15 12:30:59;;;;;;;2.70;0.80;;;21.80;69.40;;;;;;5005837;28;20642;-80
2022/07/15 12:33:26;;;;;;;1.67;0.50;;;22.00;69.90;;;;;;5005704;28;20364;-79
2022/07/15 12:36:19;;;;;;;2.70;0.80;;;22.40;69.80;;;;;;5024502;28;20229;-79
2022/07/15 12:39:03;;;;;;;0.95;0.52;;;22.60;68.50;;;;;;5008479;28;20764;-79
2022/07/15 12:41:30;;;;;;;3.38;0.65;;;22.80;67.90;;;;;;5010262;28;20221;-79
2022/07/15 12:44:00;;;;;;;3.22;0.80;;;22.90;67.80;;;;;;4998507;28;20222;-79
2022/07/15 12:46:49;;;;;;;5.20;0.93;;;22.90;67.10;;;;;;4990471;28;20221;-79
2022/07/15 12:49:41;;;;;;;2.28;0.60;;;22.80;67.30;;;;;;4998194;28;20232;-80
2022/07/15 12:52:29;;;;;;;2.95;0.70;;;22.80;67.70;;;;;;5009518;28;20256;-80
2022/07/15 12:54:57;;;;;;;1.95;0.77;;;22.80;67.70;;;;;;5011026;28;20239;-79
2022/07/15 12:57:29;;;;;;;2.75;0.73;;;22.80;68.30;;;;;;4993709;28;20240;-78
2022/07/15 12:59:58;;;;;;;2.40;0.90;;;22.80;68.30;;;;;;5008983;28;20643;-79
2022/07/15 13:02:26;;;;;;;2.10;0.68;;;22.80;68.90;;;;;;5009469;28;20507;-79
2022/07/15 13:04:53;;;;;;;3.25;0.80;;;22.90;68.90;;;;;;4986452;28;20260;-79
2022/07/15 13:07:21;;;;;;;2.60;0.52;;;23.00;68.70;;;;;;5007160;28;20247;-79
2022/07/15 13:09:47;;;;;;;2.30;0.50;;;23.10;68.10;;;;;;5012402;28;20240;-80
2022/07/15 13:12:14;;;;;;;2.83;0.70;;;23.20;68.40;;;;;;4999865;28;20335;-80
2022/07/15 13:14:42;;;;;;;0.80;0.47;;;23.40;68.30;;;;;;5006764;28;20225;-79
2022/07/15 13:17:09;;;;;;;2.13;0.73;;;23.50;68.10;;;;;;5013158;28;20312;-79
2022/07/15 13:19:36;;;;;;;2.83;0.80;;;23.60;67.10;;;;;;4991139;28;20221;-79
2022/07/15 13:22:04;;;;;;;1.52;0.52;;;23.60;66.00;;;;;;4995732;28;20305;-79